sensor_id;sensor_type;location;lat;lon;timestamp;P1;durP1;ratioP1;P2;durP2;ratioP2
32535;SDS011;18974;50.838;4.636;2023-05-07T00:01:25;9.38;;;4.22;;
32535;SDS011;18974;50.838;4.636;2023-05-07T00:03:51;13.55;;;5.25;;
32535;SDS011;18974;50.838;4.636;2023-05-07T00:06:16;9.90;;;4.75;;
32535;SDS011;18974;50.838;4.636;2023-05-07T00:08:42;11.00;;;4.97;;
32535;SDS011;18974;50.838;4.636;2023-05-07T00:11:08;10.07;;;4.88;;
32535;SDS011;18974;50.838;4.636;2023-05-07T00:13:34;8.57;;;4.57;;
32535;SDS011;18974;50.838;4.636;2023-05-07T00:16:03;15.85;;;5.95;;
32535;SDS011;18974;50.838;4.636;2023-05-07T00:18:29;12.25;;;5.20;;
32535;SDS011;18974;50.838;4.636;2023-05-07T00:20:55;11.18;;;5.30;;
32535;SDS011;18974;50.838;4.636;2023-05-07T00:23:21;10.63;;;5.53;;
32535;SDS011;18974;50.838;4.636;2023-05-07T00:25:49;11.88;;;6.13;;
32535;SDS011;18974;50.838;4.636;2023-05-07T00:28:15;16.83;;;6.40;;
32535;SDS011;18974;50.838;4.636;2023-05-07T00:30:41;14.95;;;6.30;;
32535;SDS011;18974;50.838;4.636;2023-05-07T00:33:06;16.92;;;6.10;;
32535;SDS011;18974;50.838;4.636;2023-05-07T00:35:32;12.75;;;6.10;;
32535;SDS011;18974;50.838;4.636;2023-05-07T00:37:58;10.60;;;5.50;;
32535;SDS011;18974;50.838;4.636;2023-05-07T00:40:23;18.58;;;6.13;;
32535;SDS011;18974;50.838;4.636;2023-05-07T00:42:49;11.27;;;5.40;;
32535;SDS011;18974;50.838;4.636;2023-05-07T00:45:15;10.60;;;5.82;;
32535;SDS011;18974;50.838;4.636;2023-05-07T00:47:42;12.35;;;5.57;;
32535;SDS011;18974;50.838;4.636;2023-05-07T00:50:08;13.43;;;5.53;;
32535;SDS011;18974;50.838;4.636;2023-05-07T00:52:37;17.77;;;5.15;;
32535;SDS011;18974;50.838;4.636;2023-05-07T00:55:04;9.15;;;5.10;;
32535;SDS011;18974;50.838;4.636;2023-05-07T00:57:37;18.23;;;6.47;;
32535;SDS011;18974;50.838;4.636;2023-05-07T01:00:06;11.95;;;5.80;;
32535;SDS011;18974;50.838;4.636;2023-05-07T01:02:40;8.27;;;4.95;;
32535;SDS011;18974;50.838;4.636;2023-05-07T01:05:07;9.98;;;5.50;;
32535;SDS011;18974;50.838;4.636;2023-05-07T01:07:36;11.63;;;6.13;;
32535;SDS011;18974;50.838;4.636;2023-05-07T01:10:03;17.30;;;5.90;;
32535;SDS011;18974;50.838;4.636;2023-05-07T01:12:31;12.57;;;5.53;;
32535;SDS011;18974;50.838;4.636;2023-05-07T01:14:57;8.57;;;5.60;;
32535;SDS011;18974;50.838;4.636;2023-05-07T01:17:23;10.52;;;5.10;;
32535;SDS011;18974;50.838;4.636;2023-05-07T01:19:49;14.27;;;5.97;;
32535;SDS011;18974;50.838;4.636;2023-05-07T01:22:16;11.75;;;5.32;;
32535;SDS011;18974;50.838;4.636;2023-05-07T01:24:46;10.02;;;6.05;;
32535;SDS011;18974;50.838;4.636;2023-05-07T01:27:12;8.57;;;5.00;;
32535;SDS011;18974;50.838;4.636;2023-05-07T01:29:38;8.88;;;5.07;;
32535;SDS011;18974;50.838;4.636;2023-05-07T01:32:03;10.88;;;5.90;;
32535;SDS011;18974;50.838;4.636;2023-05-07T01:34:31;10.77;;;5.43;;
32535;SDS011;18974;50.838;4.636;2023-05-07T01:36:59;19.55;;;5.10;;
32535;SDS011;18974;50.838;4.636;2023-05-07T01:39:26;7.07;;;4.38;;
32535;SDS011;18974;50.838;4.636;2023-05-07T01:41:54;7.80;;;5.15;;
32535;SDS011;18974;50.838;4.636;2023-05-07T01:44:21;9.68;;;5.25;;
32535;SDS011;18974;50.838;4.636;2023-05-07T01:46:47;11.13;;;5.05;;
32535;SDS011;18974;50.838;4.636;2023-05-07T01:49:14;14.57;;;5.50;;
32535;SDS011;18974;50.838;4.636;2023-05-07T01:51:41;11.10;;;6.18;;
32535;SDS011;18974;50.838;4.636;2023-05-07T01:54:07;8.15;;;5.43;;
32535;SDS011;18974;50.838;4.636;2023-05-07T01:56:33;10.52;;;5.70;;
32535;SDS011;18974;50.838;4.636;2023-05-07T01:58:58;14.57;;;6.72;;
32535;SDS011;18974;50.838;4.636;2023-05-07T02:01:24;9.13;;;6.05;;
32535;SDS011;18974;50.838;4.636;2023-05-07T02:03:50;12.90;;;6.97;;
32535;SDS011;18974;50.838;4.636;2023-05-07T02:06:16;18.95;;;6.68;;
32535;SDS011;18974;50.838;4.636;2023-05-07T02:08:42;12.32;;;6.15;;
32535;SDS011;18974;50.838;4.636;2023-05-07T02:11:07;15.07;;;6.00;;
32535;SDS011;18974;50.838;4.636;2023-05-07T02:13:33;8.10;;;5.10;;
32535;SDS011;18974;50.838;4.636;2023-05-07T02:16:02;10.60;;;5.40;;
32535;SDS011;18974;50.838;4.636;2023-05-07T02:18:28;14.90;;;5.20;;
32535;SDS011;18974;50.838;4.636;2023-05-07T02:20:53;9.25;;;5.47;;
32535;SDS011;18974;50.838;4.636;2023-05-07T02:23:19;17.45;;;6.80;;
32535;SDS011;18974;50.838;4.636;2023-05-07T02:25:45;14.68;;;6.25;;
32535;SDS011;18974;50.838;4.636;2023-05-07T02:28:11;12.07;;;6.40;;
32535;SDS011;18974;50.838;4.636;2023-05-07T02:30:37;15.68;;;7.00;;
32535;SDS011;18974;50.838;4.636;2023-05-07T02:33:03;12.68;;;6.97;;
32535;SDS011;18974;50.838;4.636;2023-05-07T02:35:28;15.35;;;6.70;;
32535;SDS011;18974;50.838;4.636;2023-05-07T02:37:54;14.02;;;6.15;;
32535;SDS011;18974;50.838;4.636;2023-05-07T02:40:20;11.05;;;6.53;;
32535;SDS011;18974;50.838;4.636;2023-05-07T02:42:45;14.23;;;6.78;;
32535;SDS011;18974;50.838;4.636;2023-05-07T02:45:11;9.75;;;6.13;;
32535;SDS011;18974;50.838;4.636;2023-05-07T02:47:37;13.45;;;6.15;;
32535;SDS011;18974;50.838;4.636;2023-05-07T02:50:03;9.55;;;5.97;;
32535;SDS011;18974;50.838;4.636;2023-05-07T02:52:29;14.57;;;6.47;;
32535;SDS011;18974;50.838;4.636;2023-05-07T02:54:55;13.90;;;7.13;;
32535;SDS011;18974;50.838;4.636;2023-05-07T02:57:20;12.98;;;7.32;;
32535;SDS011;18974;50.838;4.636;2023-05-07T02:59:46;17.10;;;7.75;;
32535;SDS011;18974;50.838;4.636;2023-05-07T03:02:12;15.80;;;6.78;;
32535;SDS011;18974;50.838;4.636;2023-05-07T03:04:38;10.35;;;5.55;;
32535;SDS011;18974;50.838;4.636;2023-05-07T03:07:04;11.15;;;5.63;;
32535;SDS011;18974;50.838;4.636;2023-05-07T03:09:30;11.15;;;5.75;;
32535;SDS011;18974;50.838;4.636;2023-05-07T03:11:56;9.70;;;5.88;;
32535;SDS011;18974;50.838;4.636;2023-05-07T03:14:22;12.15;;;6.15;;
32535;SDS011;18974;50.838;4.636;2023-05-07T03:16:48;9.98;;;5.88;;
32535;SDS011;18974;50.838;4.636;2023-05-07T03:19:14;15.70;;;7.43;;
32535;SDS011;18974;50.838;4.636;2023-05-07T03:21:40;12.38;;;7.38;;
32535;SDS011;18974;50.838;4.636;2023-05-07T03:24:05;14.75;;;7.10;;
32535;SDS011;18974;50.838;4.636;2023-05-07T03:26:31;13.52;;;7.30;;
32535;SDS011;18974;50.838;4.636;2023-05-07T03:28:57;9.95;;;5.88;;
32535;SDS011;18974;50.838;4.636;2023-05-07T03:31:23;16.38;;;7.50;;
32535;SDS011;18974;50.838;4.636;2023-05-07T03:33:50;11.05;;;6.55;;
32535;SDS011;18974;50.838;4.636;2023-05-07T03:36:17;12.35;;;7.38;;
32535;SDS011;18974;50.838;4.636;2023-05-07T03:38:42;18.77;;;8.43;;
32535;SDS011;18974;50.838;4.636;2023-05-07T03:41:08;12.32;;;7.75;;
32535;SDS011;18974;50.838;4.636;2023-05-07T03:43:34;17.73;;;7.85;;
32535;SDS011;18974;50.838;4.636;2023-05-07T03:45:59;13.73;;;7.50;;
32535;SDS011;18974;50.838;4.636;2023-05-07T03:48:25;16.52;;;8.23;;
32535;SDS011;18974;50.838;4.636;2023-05-07T03:50:51;12.20;;;7.15;;
32535;SDS011;18974;50.838;4.636;2023-05-07T03:53:17;15.20;;;8.05;;
32535;SDS011;18974;50.838;4.636;2023-05-07T03:55:42;13.23;;;7.35;;
32535;SDS011;18974;50.838;4.636;2023-05-07T03:58:08;22.35;;;8.02;;
32535;SDS011;18974;50.838;4.636;2023-05-07T04:00:34;16.00;;;7.63;;
32535;SDS011;18974;50.838;4.636;2023-05-07T04:03:03;12.98;;;7.13;;
32535;SDS011;18974;50.838;4.636;2023-05-07T04:05:29;13.10;;;7.07;;
32535;SDS011;18974;50.838;4.636;2023-05-07T04:07:55;12.38;;;6.22;;
32535;SDS011;18974;50.838;4.636;2023-05-07T04:10:22;10.95;;;6.55;;
32535;SDS011;18974;50.838;4.636;2023-05-07T04:12:48;13.40;;;6.28;;
32535;SDS011;18974;50.838;4.636;2023-05-07T04:15:14;12.60;;;6.18;;
32535;SDS011;18974;50.838;4.636;2023-05-07T04:17:39;10.48;;;6.22;;
32535;SDS011;18974;50.838;4.636;2023-05-07T04:20:08;11.43;;;6.25;;
32535;SDS011;18974;50.838;4.636;2023-05-07T04:22:35;12.30;;;6.78;;
32535;SDS011;18974;50.838;4.636;2023-05-07T04:25:01;12.18;;;6.93;;
32535;SDS011;18974;50.838;4.636;2023-05-07T04:27:27;13.88;;;6.97;;
32535;SDS011;18974;50.838;4.636;2023-05-07T04:29:53;17.27;;;6.15;;
32535;SDS011;18974;50.838;4.636;2023-05-07T04:32:21;14.88;;;7.57;;
32535;SDS011;18974;50.838;4.636;2023-05-07T04:34:47;14.20;;;6.25;;
32535;SDS011;18974;50.838;4.636;2023-05-07T04:37:13;10.95;;;6.55;;
32535;SDS011;18974;50.838;4.636;2023-05-07T04:39:38;13.73;;;6.63;;
32535;SDS011;18974;50.838;4.636;2023-05-07T04:42:04;14.77;;;7.30;;
32535;SDS011;18974;50.838;4.636;2023-05-07T04:44:33;12.68;;;7.32;;
32535;SDS011;18974;50.838;4.636;2023-05-07T04:47:00;20.80;;;7.80;;
32535;SDS011;18974;50.838;4.636;2023-05-07T04:49:26;20.63;;;7.35;;
32535;SDS011;18974;50.838;4.636;2023-05-07T04:51:52;18.17;;;7.63;;
32535;SDS011;18974;50.838;4.636;2023-05-07T04:54:17;16.48;;;7.45;;
32535;SDS011;18974;50.838;4.636;2023-05-07T04:56:43;14.25;;;7.40;;
32535;SDS011;18974;50.838;4.636;2023-05-07T04:59:09;12.68;;;8.27;;
32535;SDS011;18974;50.838;4.636;2023-05-07T05:01:34;13.90;;;7.13;;
32535;SDS011;18974;50.838;4.636;2023-05-07T05:04:00;23.58;;;7.32;;
32535;SDS011;18974;50.838;4.636;2023-05-07T05:06:26;14.00;;;6.63;;
32535;SDS011;18974;50.838;4.636;2023-05-07T05:08:51;17.90;;;7.35;;
32535;SDS011;18974;50.838;4.636;2023-05-07T05:11:17;11.00;;;6.93;;
32535;SDS011;18974;50.838;4.636;2023-05-07T05:13:42;16.15;;;7.13;;
32535;SDS011;18974;50.838;4.636;2023-05-07T05:16:08;16.00;;;6.45;;
32535;SDS011;18974;50.838;4.636;2023-05-07T05:18:34;15.35;;;6.38;;
32535;SDS011;18974;50.838;4.636;2023-05-07T05:21:00;11.80;;;6.70;;
32535;SDS011;18974;50.838;4.636;2023-05-07T05:23:25;16.42;;;6.38;;
32535;SDS011;18974;50.838;4.636;2023-05-07T05:25:55;12.82;;;6.25;;
32535;SDS011;18974;50.838;4.636;2023-05-07T05:28:22;10.45;;;6.05;;
32535;SDS011;18974;50.838;4.636;2023-05-07T05:30:48;8.93;;;6.20;;
32535;SDS011;18974;50.838;4.636;2023-05-07T05:33:14;10.90;;;6.57;;
32535;SDS011;18974;50.838;4.636;2023-05-07T05:35:40;9.95;;;6.50;;
32535;SDS011;18974;50.838;4.636;2023-05-07T05:38:06;9.63;;;6.40;;
32535;SDS011;18974;50.838;4.636;2023-05-07T05:40:32;11.68;;;6.85;;
32535;SDS011;18974;50.838;4.636;2023-05-07T05:42:58;10.35;;;6.05;;
32535;SDS011;18974;50.838;4.636;2023-05-07T05:45:24;15.68;;;7.13;;
32535;SDS011;18974;50.838;4.636;2023-05-07T05:47:50;18.38;;;6.82;;
32535;SDS011;18974;50.838;4.636;2023-05-07T05:50:16;16.95;;;8.02;;
32535;SDS011;18974;50.838;4.636;2023-05-07T05:52:41;10.40;;;6.55;;
32535;SDS011;18974;50.838;4.636;2023-05-07T05:55:07;13.63;;;7.40;;
32535;SDS011;18974;50.838;4.636;2023-05-07T05:57:33;15.07;;;6.72;;
32535;SDS011;18974;50.838;4.636;2023-05-07T06:00:00;15.20;;;7.25;;
32535;SDS011;18974;50.838;4.636;2023-05-07T06:02:27;13.77;;;7.80;;
32535;SDS011;18974;50.838;4.636;2023-05-07T06:04:53;15.73;;;7.85;;
32535;SDS011;18974;50.838;4.636;2023-05-07T06:07:18;16.75;;;7.93;;
32535;SDS011;18974;50.838;4.636;2023-05-07T06:09:44;14.10;;;8.13;;
32535;SDS011;18974;50.838;4.636;2023-05-07T06:12:10;14.23;;;8.02;;
32535;SDS011;18974;50.838;4.636;2023-05-07T06:14:36;14.70;;;8.52;;
32535;SDS011;18974;50.838;4.636;2023-05-07T06:17:02;14.00;;;8.25;;
32535;SDS011;18974;50.838;4.636;2023-05-07T06:19:27;17.40;;;8.65;;
32535;SDS011;18974;50.838;4.636;2023-05-07T06:21:53;13.23;;;7.72;;
32535;SDS011;18974;50.838;4.636;2023-05-07T06:24:21;14.05;;;8.27;;
32535;SDS011;18974;50.838;4.636;2023-05-07T06:26:47;22.23;;;9.18;;
32535;SDS011;18974;50.838;4.636;2023-05-07T06:29:13;13.88;;;7.85;;
32535;SDS011;18974;50.838;4.636;2023-05-07T06:31:40;16.70;;;8.70;;
32535;SDS011;18974;50.838;4.636;2023-05-07T06:39:43;19.60;;;8.02;;
32535;SDS011;18974;50.838;4.636;2023-05-07T06:42:09;13.57;;;7.63;;
32535;SDS011;18974;50.838;4.636;2023-05-07T06:44:34;13.60;;;7.15;;
32535;SDS011;18974;50.838;4.636;2023-05-07T06:47:00;16.75;;;6.38;;
32535;SDS011;18974;50.838;4.636;2023-05-07T06:49:26;10.25;;;6.78;;
32535;SDS011;18974;50.838;4.636;2023-05-07T06:51:51;16.10;;;6.63;;
32535;SDS011;18974;50.838;4.636;2023-05-07T06:54:17;12.82;;;6.88;;
32535;SDS011;18974;50.838;4.636;2023-05-07T06:56:43;10.60;;;6.28;;
32535;SDS011;18974;50.838;4.636;2023-05-07T06:59:11;14.02;;;6.68;;
32535;SDS011;18974;50.838;4.636;2023-05-07T07:01:37;14.15;;;6.55;;
32535;SDS011;18974;50.838;4.636;2023-05-07T07:04:03;11.38;;;5.55;;
32535;SDS011;18974;50.838;4.636;2023-05-07T07:06:28;9.75;;;5.50;;
32535;SDS011;18974;50.838;4.636;2023-05-07T07:08:56;10.48;;;5.75;;
32535;SDS011;18974;50.838;4.636;2023-05-07T07:11:22;10.82;;;5.40;;
32535;SDS011;18974;50.838;4.636;2023-05-07T07:13:48;11.32;;;5.28;;
32535;SDS011;18974;50.838;4.636;2023-05-07T07:16:15;14.13;;;5.95;;
32535;SDS011;18974;50.838;4.636;2023-05-07T07:18:41;15.75;;;5.22;;
32535;SDS011;18974;50.838;4.636;2023-05-07T07:21:07;10.32;;;5.30;;
32535;SDS011;18974;50.838;4.636;2023-05-07T07:23:33;12.73;;;5.00;;
32535;SDS011;18974;50.838;4.636;2023-05-07T07:25:58;13.45;;;5.00;;
32535;SDS011;18974;50.838;4.636;2023-05-07T07:28:24;13.38;;;4.20;;
32535;SDS011;18974;50.838;4.636;2023-05-07T07:30:50;11.82;;;4.07;;
32535;SDS011;18974;50.838;4.636;2023-05-07T07:33:15;13.57;;;4.65;;
32535;SDS011;18974;50.838;4.636;2023-05-07T07:35:41;12.52;;;4.57;;
32535;SDS011;18974;50.838;4.636;2023-05-07T07:38:07;11.85;;;3.63;;
32535;SDS011;18974;50.838;4.636;2023-05-07T07:40:34;9.45;;;3.70;;
32535;SDS011;18974;50.838;4.636;2023-05-07T07:43:00;10.73;;;3.83;;
32535;SDS011;18974;50.838;4.636;2023-05-07T07:45:26;8.77;;;3.10;;
32535;SDS011;18974;50.838;4.636;2023-05-07T07:47:52;7.85;;;3.10;;
32535;SDS011;18974;50.838;4.636;2023-05-07T07:50:18;4.97;;;2.38;;
32535;SDS011;18974;50.838;4.636;2023-05-07T07:52:43;7.10;;;3.05;;
32535;SDS011;18974;50.838;4.636;2023-05-07T07:55:10;8.52;;;2.97;;
32535;SDS011;18974;50.838;4.636;2023-05-07T07:57:37;6.72;;;3.30;;
32535;SDS011;18974;50.838;4.636;2023-05-07T08:00:03;9.60;;;3.10;;
32535;SDS011;18974;50.838;4.636;2023-05-07T08:02:29;8.00;;;3.65;;
32535;SDS011;18974;50.838;4.636;2023-05-07T08:04:55;8.02;;;3.25;;
32535;SDS011;18974;50.838;4.636;2023-05-07T08:07:21;10.82;;;3.50;;
32535;SDS011;18974;50.838;4.636;2023-05-07T08:09:48;7.78;;;3.20;;
32535;SDS011;18974;50.838;4.636;2023-05-07T08:12:13;15.82;;;4.07;;
32535;SDS011;18974;50.838;4.636;2023-05-07T08:14:40;10.50;;;4.05;;
32535;SDS011;18974;50.838;4.636;2023-05-07T08:17:06;8.95;;;3.40;;
32535;SDS011;18974;50.838;4.636;2023-05-07T08:19:31;8.88;;;3.50;;
32535;SDS011;18974;50.838;4.636;2023-05-07T08:21:57;11.07;;;3.38;;
32535;SDS011;18974;50.838;4.636;2023-05-07T08:24:23;6.13;;;3.42;;
32535;SDS011;18974;50.838;4.636;2023-05-07T08:26:48;9.95;;;3.83;;
32535;SDS011;18974;50.838;4.636;2023-05-07T08:29:15;7.15;;;3.70;;
32535;SDS011;18974;50.838;4.636;2023-05-07T08:31:40;10.45;;;3.75;;
32535;SDS011;18974;50.838;4.636;2023-05-07T08:34:06;11.02;;;3.60;;
32535;SDS011;18974;50.838;4.636;2023-05-07T08:36:32;12.52;;;3.72;;
32535;SDS011;18974;50.838;4.636;2023-05-07T08:38:59;13.32;;;4.20;;
32535;SDS011;18974;50.838;4.636;2023-05-07T08:41:25;13.10;;;4.50;;
32535;SDS011;18974;50.838;4.636;2023-05-07T08:43:51;11.95;;;4.15;;
32535;SDS011;18974;50.838;4.636;2023-05-07T08:46:17;8.45;;;3.75;;
32535;SDS011;18974;50.838;4.636;2023-05-07T08:48:45;9.75;;;4.03;;
32535;SDS011;18974;50.838;4.636;2023-05-07T08:51:15;10.55;;;4.43;;
32535;SDS011;18974;50.838;4.636;2023-05-07T08:53:41;10.18;;;4.70;;
32535;SDS011;18974;50.838;4.636;2023-05-07T08:56:11;11.57;;;4.45;;
32535;SDS011;18974;50.838;4.636;2023-05-07T08:58:37;9.68;;;4.05;;
32535;SDS011;18974;50.838;4.636;2023-05-07T09:01:03;7.60;;;3.88;;
32535;SDS011;18974;50.838;4.636;2023-05-07T09:03:38;7.80;;;4.13;;
32535;SDS011;18974;50.838;4.636;2023-05-07T09:06:04;10.75;;;4.15;;
32535;SDS011;18974;50.838;4.636;2023-05-07T09:08:32;13.07;;;4.15;;
32535;SDS011;18974;50.838;4.636;2023-05-07T09:10:58;10.07;;;4.65;;
32535;SDS011;18974;50.838;4.636;2023-05-07T09:13:24;11.25;;;4.70;;
32535;SDS011;18974;50.838;4.636;2023-05-07T09:15:50;10.85;;;4.43;;
32535;SDS011;18974;50.838;4.636;2023-05-07T09:18:15;8.02;;;4.18;;
32535;SDS011;18974;50.838;4.636;2023-05-07T09:20:41;11.10;;;4.70;;
32535;SDS011;18974;50.838;4.636;2023-05-07T09:23:07;10.68;;;4.10;;
32535;SDS011;18974;50.838;4.636;2023-05-07T09:25:34;8.85;;;4.63;;
32535;SDS011;18974;50.838;4.636;2023-05-07T09:28:01;8.40;;;4.13;;
32535;SDS011;18974;50.838;4.636;2023-05-07T09:30:28;9.43;;;4.10;;
32535;SDS011;18974;50.838;4.636;2023-05-07T09:32:56;11.25;;;4.88;;
32535;SDS011;18974;50.838;4.636;2023-05-07T09:35:26;15.43;;;4.15;;
32535;SDS011;18974;50.838;4.636;2023-05-07T09:37:55;6.80;;;4.20;;
32535;SDS011;18974;50.838;4.636;2023-05-07T09:40:21;10.65;;;4.22;;
32535;SDS011;18974;50.838;4.636;2023-05-07T09:42:54;7.55;;;3.85;;
32535;SDS011;18974;50.838;4.636;2023-05-07T09:45:27;8.90;;;3.50;;
32535;SDS011;18974;50.838;4.636;2023-05-07T09:47:54;6.80;;;3.15;;
32535;SDS011;18974;50.838;4.636;2023-05-07T09:50:24;9.68;;;3.30;;
32535;SDS011;18974;50.838;4.636;2023-05-07T09:52:53;8.02;;;3.75;;
32535;SDS011;18974;50.838;4.636;2023-05-07T09:55:20;10.88;;;4.15;;
32535;SDS011;18974;50.838;4.636;2023-05-07T09:57:48;15.98;;;4.38;;
32535;SDS011;18974;50.838;4.636;2023-05-07T10:00:21;12.48;;;4.00;;
32535;SDS011;18974;50.838;4.636;2023-05-07T10:02:48;10.10;;;4.55;;
32535;SDS011;18974;50.838;4.636;2023-05-07T10:05:16;12.50;;;3.95;;
32535;SDS011;18974;50.838;4.636;2023-05-07T10:07:43;11.25;;;4.50;;
32535;SDS011;18974;50.838;4.636;2023-05-07T10:10:09;8.75;;;4.28;;
32535;SDS011;18974;50.838;4.636;2023-05-07T10:12:36;10.98;;;4.63;;
32535;SDS011;18974;50.838;4.636;2023-05-07T10:15:07;17.92;;;4.03;;
32535;SDS011;18974;50.838;4.636;2023-05-07T10:17:35;5.60;;;2.97;;
32535;SDS011;18974;50.838;4.636;2023-05-07T10:20:03;7.40;;;2.50;;
32535;SDS011;18974;50.838;4.636;2023-05-07T10:22:33;6.00;;;2.83;;
32535;SDS011;18974;50.838;4.636;2023-05-07T10:25:29;10.88;;;3.80;;
32535;SDS011;18974;50.838;4.636;2023-05-07T10:27:57;6.63;;;3.85;;
32535;SDS011;18974;50.838;4.636;2023-05-07T10:30:34;6.85;;;3.42;;
32535;SDS011;18974;50.838;4.636;2023-05-07T10:35:40;10.45;;;3.70;;
32535;SDS011;18974;50.838;4.636;2023-05-07T10:38:08;10.53;;;3.47;;
32535;SDS011;18974;50.838;4.636;2023-05-07T10:40:34;7.35;;;2.85;;
32535;SDS011;18974;50.838;4.636;2023-05-07T10:43:00;8.35;;;2.50;;
32535;SDS011;18974;50.838;4.636;2023-05-07T10:45:29;5.25;;;2.10;;
32535;SDS011;18974;50.838;4.636;2023-05-07T10:48:09;5.53;;;2.20;;
32535;SDS011;18974;50.838;4.636;2023-05-07T10:50:36;11.35;;;2.47;;
32535;SDS011;18974;50.838;4.636;2023-05-07T10:55:47;11.18;;;2.65;;
32535;SDS011;18974;50.838;4.636;2023-05-07T10:58:24;5.00;;;2.22;;
32535;SDS011;18974;50.838;4.636;2023-05-07T11:00:55;7.10;;;2.45;;
32535;SDS011;18974;50.838;4.636;2023-05-07T11:03:25;8.00;;;2.75;;
32535;SDS011;18974;50.838;4.636;2023-05-07T11:06:11;11.27;;;3.05;;
32535;SDS011;18974;50.838;4.636;2023-05-07T11:08:54;7.35;;;3.00;;
32535;SDS011;18974;50.838;4.636;2023-05-07T11:14:09;4.75;;;2.50;;
32535;SDS011;18974;50.838;4.636;2023-05-07T11:16:35;6.30;;;2.65;;
32535;SDS011;18974;50.838;4.636;2023-05-07T11:19:03;6.55;;;2.50;;
32535;SDS011;18974;50.838;4.636;2023-05-07T11:21:39;5.68;;;2.40;;
32535;SDS011;18974;50.838;4.636;2023-05-07T11:24:10;6.45;;;2.67;;
32535;SDS011;18974;50.838;4.636;2023-05-07T11:26:49;5.93;;;2.60;;
32535;SDS011;18974;50.838;4.636;2023-05-07T11:29:19;7.72;;;3.20;;
32535;SDS011;18974;50.838;4.636;2023-05-07T11:31:50;6.88;;;2.92;;
32535;SDS011;18974;50.838;4.636;2023-05-07T11:34:20;5.13;;;2.72;;
32535;SDS011;18974;50.838;4.636;2023-05-07T11:36:47;9.25;;;3.38;;
32535;SDS011;18974;50.838;4.636;2023-05-07T11:39:30;5.47;;;2.53;;
32535;SDS011;18974;50.838;4.636;2023-05-07T11:41:58;8.10;;;2.85;;
32535;SDS011;18974;50.838;4.636;2023-05-07T11:44:24;6.70;;;2.80;;
32535;SDS011;18974;50.838;4.636;2023-05-07T11:46:50;9.30;;;2.45;;
32535;SDS011;18974;50.838;4.636;2023-05-07T11:49:16;5.53;;;2.25;;
32535;SDS011;18974;50.838;4.636;2023-05-07T11:51:42;5.88;;;2.80;;
32535;SDS011;18974;50.838;4.636;2023-05-07T11:54:08;6.60;;;2.40;;
32535;SDS011;18974;50.838;4.636;2023-05-07T11:56:36;5.50;;;2.22;;
32535;SDS011;18974;50.838;4.636;2023-05-07T11:59:02;7.20;;;2.72;;
32535;SDS011;18974;50.838;4.636;2023-05-07T12:01:28;3.85;;;1.90;;
32535;SDS011;18974;50.838;4.636;2023-05-07T12:03:53;7.80;;;2.60;;
32535;SDS011;18974;50.838;4.636;2023-05-07T12:06:19;6.57;;;2.53;;
32535;SDS011;18974;50.838;4.636;2023-05-07T12:08:45;5.18;;;2.15;;
32535;SDS011;18974;50.838;4.636;2023-05-07T12:11:15;6.40;;;2.10;;
32535;SDS011;18974;50.838;4.636;2023-05-07T12:13:46;9.53;;;2.67;;
32535;SDS011;18974;50.838;4.636;2023-05-07T12:16:12;8.75;;;2.38;;
32535;SDS011;18974;50.838;4.636;2023-05-07T12:18:39;6.30;;;2.35;;
32535;SDS011;18974;50.838;4.636;2023-05-07T12:21:05;3.58;;;1.92;;
32535;SDS011;18974;50.838;4.636;2023-05-07T12:23:33;8.13;;;2.35;;
32535;SDS011;18974;50.838;4.636;2023-05-07T12:26:02;6.18;;;2.10;;
32535;SDS011;18974;50.838;4.636;2023-05-07T12:28:28;4.97;;;1.90;;
32535;SDS011;18974;50.838;4.636;2023-05-07T12:30:53;6.57;;;2.15;;
32535;SDS011;18974;50.838;4.636;2023-05-07T12:33:23;8.43;;;2.55;;
32535;SDS011;18974;50.838;4.636;2023-05-07T12:35:50;4.30;;;2.03;;
32535;SDS011;18974;50.838;4.636;2023-05-07T12:38:19;9.25;;;2.35;;
32535;SDS011;18974;50.838;4.636;2023-05-07T12:40:45;4.90;;;2.20;;
32535;SDS011;18974;50.838;4.636;2023-05-07T12:43:16;5.95;;;2.38;;
32535;SDS011;18974;50.838;4.636;2023-05-07T12:45:42;4.88;;;2.45;;
32535;SDS011;18974;50.838;4.636;2023-05-07T12:48:09;8.40;;;2.70;;
32535;SDS011;18974;50.838;4.636;2023-05-07T12:50:35;4.35;;;2.28;;
32535;SDS011;18974;50.838;4.636;2023-05-07T12:53:04;5.03;;;2.08;;
32535;SDS011;18974;50.838;4.636;2023-05-07T12:55:31;5.47;;;2.28;;
32535;SDS011;18974;50.838;4.636;2023-05-07T12:58:00;5.57;;;2.85;;
32535;SDS011;18974;50.838;4.636;2023-05-07T13:00:37;4.32;;;2.25;;
32535;SDS011;18974;50.838;4.636;2023-05-07T13:03:03;5.13;;;2.60;;
32535;SDS011;18974;50.838;4.636;2023-05-07T13:05:31;11.20;;;2.38;;
32535;SDS011;18974;50.838;4.636;2023-05-07T13:07:57;7.05;;;2.42;;
32535;SDS011;18974;50.838;4.636;2023-05-07T13:10:23;4.82;;;2.20;;
32535;SDS011;18974;50.838;4.636;2023-05-07T13:12:50;4.30;;;2.28;;
32535;SDS011;18974;50.838;4.636;2023-05-07T13:15:16;3.90;;;2.17;;
32535;SDS011;18974;50.838;4.636;2023-05-07T13:17:42;5.00;;;2.47;;
32535;SDS011;18974;50.838;4.636;2023-05-07T13:20:11;8.38;;;2.50;;
32535;SDS011;18974;50.838;4.636;2023-05-07T13:22:40;6.82;;;2.22;;
32535;SDS011;18974;50.838;4.636;2023-05-07T13:25:06;5.55;;;2.05;;
32535;SDS011;18974;50.838;4.636;2023-05-07T13:27:32;5.63;;;2.28;;
32535;SDS011;18974;50.838;4.636;2023-05-07T13:30:01;4.90;;;1.80;;
32535;SDS011;18974;50.838;4.636;2023-05-07T13:32:28;5.35;;;2.25;;
32535;SDS011;18974;50.838;4.636;2023-05-07T13:34:54;5.13;;;2.10;;
32535;SDS011;18974;50.838;4.636;2023-05-07T13:37:20;3.15;;;1.67;;
32535;SDS011;18974;50.838;4.636;2023-05-07T13:39:46;4.95;;;2.22;;
32535;SDS011;18974;50.838;4.636;2023-05-07T13:42:11;18.13;;;2.35;;
32535;SDS011;18974;50.838;4.636;2023-05-07T13:44:37;4.75;;;2.05;;
32535;SDS011;18974;50.838;4.636;2023-05-07T13:47:03;7.50;;;2.10;;
32535;SDS011;18974;50.838;4.636;2023-05-07T13:49:28;5.03;;;2.10;;
32535;SDS011;18974;50.838;4.636;2023-05-07T13:51:54;2.45;;;1.80;;
32535;SDS011;18974;50.838;4.636;2023-05-07T13:54:20;8.13;;;2.45;;
32535;SDS011;18974;50.838;4.636;2023-05-07T13:56:46;8.50;;;2.53;;
32535;SDS011;18974;50.838;4.636;2023-05-07T13:59:12;6.90;;;2.67;;
32535;SDS011;18974;50.838;4.636;2023-05-07T14:01:39;8.93;;;2.95;;
32535;SDS011;18974;50.838;4.636;2023-05-07T14:04:05;4.95;;;1.98;;
32535;SDS011;18974;50.838;4.636;2023-05-07T14:06:31;4.50;;;2.50;;
32535;SDS011;18974;50.838;4.636;2023-05-07T14:08:57;6.35;;;2.20;;
32535;SDS011;18974;50.838;4.636;2023-05-07T14:11:23;10.73;;;2.05;;
32535;SDS011;18974;50.838;4.636;2023-05-07T14:13:48;5.13;;;2.50;;
32535;SDS011;18974;50.838;4.636;2023-05-07T14:16:14;4.07;;;2.15;;
32535;SDS011;18974;50.838;4.636;2023-05-07T14:18:40;6.60;;;2.60;;
32535;SDS011;18974;50.838;4.636;2023-05-07T14:21:05;3.60;;;2.30;;
32535;SDS011;18974;50.838;4.636;2023-05-07T14:23:32;6.05;;;2.10;;
32535;SDS011;18974;50.838;4.636;2023-05-07T14:25:57;5.55;;;2.42;;
32535;SDS011;18974;50.838;4.636;2023-05-07T14:28:23;5.00;;;2.25;;
32535;SDS011;18974;50.838;4.636;2023-05-07T14:30:49;5.22;;;2.65;;
32535;SDS011;18974;50.838;4.636;2023-05-07T14:33:15;3.95;;;2.30;;
32535;SDS011;18974;50.838;4.636;2023-05-07T14:35:42;6.60;;;3.05;;
32535;SDS011;18974;50.838;4.636;2023-05-07T14:38:13;4.80;;;2.75;;
32535;SDS011;18974;50.838;4.636;2023-05-07T14:40:38;8.10;;;3.22;;
32535;SDS011;18974;50.838;4.636;2023-05-07T14:43:04;6.38;;;2.83;;
32535;SDS011;18974;50.838;4.636;2023-05-07T14:45:30;10.75;;;3.13;;
32535;SDS011;18974;50.838;4.636;2023-05-07T14:47:55;4.90;;;2.80;;
32535;SDS011;18974;50.838;4.636;2023-05-07T14:50:21;8.48;;;2.90;;
32535;SDS011;18974;50.838;4.636;2023-05-07T14:52:47;7.38;;;2.60;;